Share

Bahias De Huatulco, Mexico

Puerto Escondido (MMPS) Elev 289 ft | 15.88 °N, 97.09 °W | Change Station

Current weather conditions updated 47 minutes ago

Scattered Clouds
Scattered Clouds
81 °F
Feels Like 84 °F
N
10
Wind Variable Wind from East
Sunrise 7:06 AM
Sunset 7:41 PM
Moon Waning Gibbous

Today is forecast to be nearly the same temperature as yesterday. Afternoon thunderstorms.

Pressure 30.06 in
Visibility 13.0 miles
Clouds Few 12000 ft
Scattered Clouds 26000 ft
Heat Index 84 °F
Dew Point 70 °F
Humidity 70%
Rainfall 0.00 in
Snow Depth Not available.
UV 1 out of 16
Pollen Not available.
Air Quality Not available.
Flu Activity Not available.
METAR MMPS 211341Z 09009KT 13SM FEW120 SCT260 27/21 A3006 RMK 8/032 HZY

More Conditions Fewer Conditions

Pressure 30.06 in
Visibility 13.0 miles
Clouds Few 12000 ft
Scattered Clouds 26000 ft
Heat Index 84 °F
Dew Point 70 °F
Humidity 70%
Rainfall 0.00 in
Snow Depth Not available.
UV 1 out of 16
Pollen Not available.
Air Quality Not available.
Flu Activity Not available.
METAR MMPS 211341Z 09009KT 13SM FEW120 SCT260 27/21 A3006 RMK 8/032 HZY

More Conditions Fewer Conditions

10-Day Weather Forecast

Almanac

Astronomy

Apr. 21, 2014 Rise Set
Actual Time 7:06 AM CDT 7:41 PM CDT
Civil Twilight 6:44 AM CDT 8:03 PM CDT
Nautical Twilight 6:18 AM CDT 8:29 PM CDT
Astronomical Twilight 5:52 AM CDT 8:55 PM CDT
Moon 12:58 AM CDT 12:45 PM CDT
Length of Visible Light 13h 18m
Length of Day
12h 34m
Tomorrow will be 0m 49s longer.
Waning Gibbous, 58% of the Moon is Illuminated
Today
Waning Gibbous
Apr 22
Last Quarter
Apr 29
New
May 6
First Quarter
May 14
Full

Today's Extremes

Country Highs Country Lows

Community

  • Bright Eyes
    Bright Eyes
  • Snowy Robin
    Snowy Robin
  • Sun Pillar and Geese
    Sun Pillar and Geese
  • Showers on the Way
    Showers on the Way
  • Easter Morning Fog
    Easter Morning Fog

WunderPhotos

Upload Photos

1,703,638 photos uploaded!

Nearby

Snow Depth

Not available.

Coastal Water Temperatures

Place Temperature
No Stations Reporting

Earthquake Activity

City Distance Mag. Time & Date
No recent earthquake activity has been reported nearby.
Minimum magnitude displayed is 2.5.

Nearby Weather Stations

There are no personal weather stations in this area.

What do you think?

We're not finished. Please let us know what you like, what you don't like, and what you are still missing.